Time;durP1;ratioP1;P1;durP2;ratioP2;P2;SDS_P1;SDS_P2;PMS_P1;PMS_P2;Temp;Humidity;BMP_temperature;BMP_pressure;BME280_temperature;BME280_humidity;BME280_pressure;Samples;Min_cycle;Max_cycle;Signal;HPM_P1;HPM_P2
2022/11/03 00:00:10;;;;;;;19.30;3.37;;;;;8.10;94443.00;;;;7395489;19;20192;-76
2022/11/03 00:02:39;;;;;;;8.93;3.20;;;;;8.00;94443.00;;;;7393659;19;20180;-77
2022/11/03 00:06:03;;;;;;;9.63;3.07;;;;;8.00;94440.00;;;;7394971;19;20145;-76
2022/11/03 00:08:04;;;;;;;10.30;3.10;;;;;7.90;94436.00;;;;7397571;19;20144;-77
2022/11/03 00:10:31;;;;;;;7.57;2.90;;;;;8.00;94438.00;;;;7394771;19;20204;-77
2022/11/03 00:12:59;;;;;;;8.83;2.93;;;;;8.00;94433.00;;;;7394436;19;20141;-77
2022/11/03 00:15:33;;;;;;;11.17;2.93;;;;;7.90;94437.00;;;;7394708;19;20156;-76
2022/11/03 00:18:01;;;;;;;8.10;2.50;;;;;7.90;94425.00;;;;7395355;19;20166;-76
2022/11/03 00:20:28;;;;;;;13.13;3.23;;;;;7.60;94420.00;;;;7396110;19;20500;-76
2022/11/03 00:23:02;;;;;;;8.87;2.60;;;;;7.60;94425.00;;;;7394692;19;20153;-77
2022/11/03 00:25:30;;;;;;;11.57;3.20;;;;;7.60;94428.00;;;;7395579;19;20133;-76
2022/11/03 00:27:57;;;;;;;9.70;3.03;;;;;7.60;94429.00;;;;7397358;19;20156;-77
2022/11/03 00:30:31;;;;;;;10.23;3.30;;;;;7.70;94423.00;;;;7396303;19;20133;-76
2022/11/03 00:32:58;;;;;;;10.43;3.53;;;;;7.60;94422.00;;;;7393241;19;20212;-77
2022/11/03 00:35:26;;;;;;;12.83;3.80;;;;;7.50;94423.00;;;;7388728;19;20668;-77
2022/11/03 00:38:00;;;;;;;11.27;3.00;;;;;7.50;94412.00;;;;7396616;19;20136;-76
2022/11/03 00:40:27;;;;;;;11.03;3.70;;;;;7.40;94423.00;;;;7394571;19;20150;-76
2022/11/03 00:42:55;;;;;;;9.47;3.13;;;;;7.30;94428.00;;;;7394116;19;20595;-76
2022/11/03 00:45:29;;;;;;;9.80;3.43;;;;;7.30;94410.00;;;;7394729;19;20610;-76
2022/11/03 00:50:49;;;;;;;13.27;3.77;;;;;7.20;94410.00;;;;7393791;19;20140;-76
2022/11/03 00:53:16;;;;;;;12.73;3.03;;;;;7.20;94413.00;;;;7394591;19;20139;-76
2022/11/03 00:55:49;;;;;;;10.83;3.27;;;;;7.20;94404.00;;;;7393099;19;20641;-76
2022/11/03 00:58:23;;;;;;;12.67;3.30;;;;;7.40;94400.00;;;;7394329;19;20135;-76
2022/11/03 01:00:56;;;;;;;9.20;3.53;;;;;7.40;94400.00;;;;7394183;19;20113;-76
2022/11/03 01:03:33;;;;;;;10.60;2.90;;;;;7.50;94396.00;;;;7395756;19;20136;-77
2022/11/03 01:09:03;;;;;;;12.53;3.23;;;;;7.50;94390.00;;;;7393920;19;20149;-76
2022/11/03 01:11:42;;;;;;;11.43;3.33;;;;;7.30;94384.00;;;;7394509;19;20640;-76
2022/11/03 01:14:17;;;;;;;8.23;2.97;;;;;7.20;94375.00;;;;7391912;19;20510;-77
2022/11/03 01:16:44;;;;;;;16.33;3.03;;;;;7.20;94364.00;;;;7393795;19;21019;-77
2022/11/03 01:19:25;;;;;;;18.27;3.40;;;;;7.00;94361.00;;;;7393429;19;20530;-76
2022/11/03 01:21:59;;;;;;;14.53;2.90;;;;;6.90;94365.00;;;;7395267;19;20142;-76
2022/11/03 01:24:26;;;;;;;7.80;3.03;;;;;6.90;94376.00;;;;7393469;19;20133;-77
2022/11/03 01:26:54;;;;;;;9.40;2.83;;;;;6.90;94373.00;;;;7393359;19;20514;-76
2022/11/03 01:29:28;;;;;;;14.00;2.90;;;;;6.70;94370.00;;;;7394000;19;20176;-76
2022/11/03 01:31:56;;;;;;;6.17;2.80;;;;;6.60;94367.00;;;;7393043;19;20808;-76
2022/11/03 01:34:24;;;;;;;10.10;2.77;;;;;6.50;94361.00;;;;7394056;19;20657;-77
2022/11/03 01:37:04;;;;;;;10.33;3.30;;;;;6.50;94363.00;;;;7391804;19;20188;-76
2022/11/03 01:39:32;;;;;;;10.03;3.17;;;;;6.40;94363.00;;;;7392990;19;20913;-76
2022/11/03 01:42:06;;;;;;;12.20;2.70;;;;;6.40;94365.00;;;;7395154;19;20136;-77
2022/11/03 01:44:36;;;;;;;16.57;3.40;;;;;6.40;94359.00;;;;7391281;19;20153;-77
2022/11/03 01:47:07;;;;;;;11.43;3.30;;;;;6.50;94356.00;;;;7401121;19;20143;-77
2022/11/03 01:49:46;;;;;;;7.27;2.90;;;;;6.70;94361.00;;;;7401800;19;20169;-77
2022/11/03 01:52:26;;;;;;;12.80;3.30;;;;;6.80;94356.00;;;;7400233;19;20618;-76
2022/11/03 01:55:09;;;;;;;9.27;3.10;;;;;7.00;94352.00;;;;7401236;19;20154;-77
2022/11/03 01:57:43;;;;;;;9.13;3.13;;;;;7.10;94354.00;;;;7400007;19;20148;-76
2022/11/03 02:00:17;;;;;;;12.00;3.40;;;;;7.20;94354.00;;;;7399793;19;20148;-76
2022/11/03 02:02:44;;;;;;;14.97;3.53;;;;;7.20;94338.00;;;;7400822;19;20502;-76
2022/11/03 02:05:17;;;;;;;9.73;3.57;;;;;7.20;94336.00;;;;7401031;19;20749;-75
2022/11/03 02:08:04;;;;;;;13.77;3.20;;;;;7.20;94331.00;;;;7399509;19;20157;-76
2022/11/03 02:10:38;;;;;;;12.37;3.40;;;;;7.10;94329.00;;;;7402649;19;20133;-76
2022/11/03 02:13:20;;;;;;;12.87;3.60;;;;;7.30;94320.00;;;;7400832;19;20165;-76
2022/11/03 02:15:50;;;;;;;12.73;3.20;;;;;7.10;94324.00;;;;7399256;19;20132;-76
2022/11/03 02:18:28;;;;;;;11.63;3.80;;;;;6.90;94323.00;;;;7398449;19;20136;-76
2022/11/03 02:21:11;;;;;;;14.10;3.20;;;;;6.70;94313.00;;;;7401240;19;20153;-76
2022/11/03 02:24:14;;;;;;;12.53;3.27;;;;;6.80;94305.00;;;;7401035;19;20164;-76
2022/11/03 02:26:46;;;;;;;10.47;2.70;;;;;6.60;94299.00;;;;7401329;19;20224;-75
2022/11/03 02:29:20;;;;;;;9.50;2.90;;;;;6.50;94292.00;;;;7399490;19;20216;-76
2022/11/03 02:32:00;;;;;;;8.23;2.80;;;;;6.30;94287.00;;;;7397979;19;20180;-76
2022/11/03 02:35:06;;;;;;;9.27;2.83;;;;;6.40;94282.00;;;;7396388;19;20630;-75
2022/11/03 02:37:45;;;;;;;8.90;2.60;;;;;6.20;94287.00;;;;7398437;19;20132;-77
2022/11/03 02:40:24;;;;;;;5.87;2.60;;;;;6.20;94286.00;;;;7397525;19;20501;-77
2022/11/03 02:42:52;;;;;;;7.90;2.80;;;;;6.30;94281.00;;;;7398263;19;20647;-75
2022/11/03 02:45:26;;;;;;;14.10;3.63;;;;;6.20;94269.00;;;;7399899;19;20130;-77
2022/11/03 02:48:02;;;;;;;9.47;2.67;;;;;6.20;94276.00;;;;7401890;19;20612;-78
2022/11/03 02:50:36;;;;;;;10.23;3.23;;;;;6.20;94267.00;;;;7397782;19;20192;-76
2022/11/03 02:53:03;;;;;;;10.53;3.10;;;;;6.20;94272.00;;;;7397778;19;20166;-77
2022/11/03 02:55:40;;;;;;;15.73;3.57;;;;;6.10;94262.00;;;;7397460;19;20129;-76
2022/11/03 02:58:20;;;;;;;9.30;3.13;;;;;6.00;94271.00;;;;7398015;19;20519;-76
2022/11/03 03:01:13;;;;;;;13.57;3.10;;;;;6.10;94267.00;;;;7399713;19;20133;-77
2022/11/03 03:03:54;;;;;;;10.93;3.30;;;;;6.30;94260.00;;;;7400442;19;20137;-77
2022/11/03 03:06:27;;;;;;;12.80;3.70;;;;;6.30;94261.00;;;;7396292;19;20156;-76
2022/11/03 03:09:06;;;;;;;14.23;3.67;;;;;6.40;94251.00;;;;7399336;19;20502;-76
2022/11/03 03:11:37;;;;;;;11.53;3.87;;;;;6.40;94242.00;;;;7402825;19;20137;-76
2022/11/03 03:14:16;;;;;;;10.73;3.90;;;;;6.40;94239.00;;;;7401732;19;20135;-77
2022/11/03 03:16:59;;;;;;;14.80;4.67;;;;;6.60;94235.00;;;;7397380;19;20595;-76
2022/11/03 03:19:45;;;;;;;15.67;4.70;;;;;6.70;94235.00;;;;7401279;19;20140;-77
2022/11/03 03:22:28;;;;;;;15.53;4.77;;;;;6.80;94231.00;;;;7401021;19;20132;-76
2022/11/03 03:25:26;;;;;;;13.47;4.30;;;;;6.90;94223.00;;;;7400171;19;20148;-75
2022/11/03 03:28:01;;;;;;;15.73;4.73;;;;;6.90;94202.00;;;;7400146;19;20135;-76
2022/11/03 03:30:36;;;;;;;11.00;5.30;;;;;6.90;94204.00;;;;7401333;19;20132;-75
2022/11/03 03:33:06;;;;;;;15.33;5.63;;;;;7.00;94214.00;;;;7395873;19;20610;-76
2022/11/03 03:35:39;;;;;;;14.03;5.27;;;;;7.00;94199.00;;;;7398305;19;20220;-76
2022/11/03 03:38:21;;;;;;;13.23;5.93;;;;;6.90;94195.00;;;;7398874;19;20133;-77
2022/11/03 03:40:53;;;;;;;14.43;5.20;;;;;6.90;94193.00;;;;7398090;19;20129;-75
2022/11/03 03:43:29;;;;;;;23.17;5.27;;;;;6.80;94185.00;;;;7399391;19;20595;-77
2022/11/03 03:46:04;;;;;;;17.07;5.50;;;;;7.00;94186.00;;;;7399772;19;20125;-75
2022/11/03 03:48:38;;;;;;;12.43;4.73;;;;;7.20;94185.00;;;;7397151;19;20143;-75
2022/11/03 03:51:07;;;;;;;11.90;4.80;;;;;7.20;94189.00;;;;7396880;19;20156;-76
2022/11/03 03:53:35;;;;;;;13.97;5.07;;;;;7.20;94191.00;;;;7397115;19;20230;-76
2022/11/03 03:56:10;;;;;;;15.17;4.57;;;;;7.10;94170.00;;;;7395718;19;20157;-75
2022/11/03 03:58:37;;;;;;;17.50;5.20;;;;;7.10;94180.00;;;;7398360;19;20156;-76
2022/11/03 04:01:05;;;;;;;12.47;4.37;;;;;7.10;94180.00;;;;7396650;19;20607;-76
2022/11/03 04:03:39;;;;;;;16.23;4.70;;;;;7.10;94176.00;;;;7397068;19;20602;-76
2022/11/03 04:06:08;;;;;;;13.93;4.13;;;;;7.10;94163.00;;;;7398786;19;20128;-76
2022/11/03 04:08:36;;;;;;;12.97;4.23;;;;;7.00;94166.00;;;;7392081;19;20149;-76
2022/11/03 04:22:32;;;;;;;14.57;3.87;;;;;6.80;94145.00;;;;7396872;19;20137;-76
2022/11/03 04:24:59;;;;;;;13.40;4.00;;;;;6.80;94145.00;;;;7395871;19;20156;-77
2022/11/03 04:27:37;;;;;;;13.40;3.90;;;;;6.90;94141.00;;;;7396318;19;20502;-76
2022/11/03 04:30:15;;;;;;;9.50;3.47;;;;;6.90;94133.00;;;;7397034;19;20200;-76
2022/11/03 04:32:51;;;;;;;15.27;4.17;;;;;7.00;94141.00;;;;7394292;19;20180;-77
2022/11/03 04:35:27;;;;;;;14.53;4.03;;;;;7.00;94134.00;;;;7394794;19;20180;-76
2022/11/03 04:38:14;;;;;;;10.50;4.10;;;;;7.10;94132.00;;;;7396263;19;20153;-76
2022/11/03 04:40:51;;;;;;;11.83;3.73;;;;;7.00;94130.00;;;;7392428;19;20491;-76
2022/11/03 04:43:37;;;;;;;12.03;4.43;;;;;7.00;94133.00;;;;7394665;19;20607;-77
2022/11/03 04:46:07;;;;;;;10.47;4.77;;;;;7.00;94131.00;;;;7395884;19;20132;-77
2022/11/03 04:48:43;;;;;;;13.63;4.77;;;;;6.90;94131.00;;;;7395977;19;20161;-76
2022/11/03 04:51:16;;;;;;;11.67;5.33;;;;;6.90;94120.00;;;;7395330;19;20156;-76
2022/11/03 04:53:56;;;;;;;14.27;4.70;;;;;7.00;94137.00;;;;7394502;19;20200;-76
2022/11/03 04:56:28;;;;;;;17.70;4.80;;;;;7.10;94120.00;;;;7391191;19;20511;-76
2022/11/03 04:59:06;;;;;;;12.90;4.43;;;;;7.10;94122.00;;;;7393043;19;20485;-76
2022/11/03 05:01:34;;;;;;;11.67;4.60;;;;;6.90;94102.00;;;;7392915;19;20156;-76
2022/11/03 05:04:07;;;;;;;13.73;5.27;;;;;6.90;94097.00;;;;7392402;19;20174;-76
2022/11/03 05:06:45;;;;;;;17.23;6.17;;;;;6.90;94100.00;;;;7389204;19;20156;-75
2022/11/03 05:09:30;;;;;;;10.80;5.40;;;;;7.00;94101.00;;;;7393698;19;20133;-76
2022/11/03 05:12:09;;;;;;;15.80;6.20;;;;;7.00;94100.00;;;;7388623;19;20142;-76
2022/11/03 05:14:37;;;;;;;16.47;6.20;;;;;6.90;94083.00;;;;7391516;19;20132;-76
2022/11/03 05:17:25;;;;;;;15.13;6.93;;;;;6.90;94083.00;;;;7391758;19;20125;-76
2022/11/03 05:20:04;;;;;;;11.93;6.37;;;;;6.90;94078.00;;;;7390992;19;20156;-76
2022/11/03 05:22:37;;;;;;;15.90;6.83;;;;;7.00;94081.00;;;;7391121;19;20136;-77
2022/11/03 05:25:36;;;;;;;15.27;6.03;;;;;6.90;94070.00;;;;7393138;19;20139;-76
2022/11/03 05:28:15;;;;;;;15.60;6.00;;;;;6.90;94073.00;;;;7394372;19;20148;-77
2022/11/03 05:30:50;;;;;;;11.33;6.40;;;;;6.80;94066.00;;;;7391648;19;20150;-76
2022/11/03 05:33:43;;;;;;;18.40;6.63;;;;;6.80;94072.00;;;;7391297;19;20517;-77
2022/11/03 05:36:28;;;;;;;16.10;7.20;;;;;6.80;94063.00;;;;7388106;19;20641;-76
2022/11/03 05:39:15;;;;;;;12.10;6.20;;;;;6.80;94061.00;;;;7391593;19;20561;-77
2022/11/03 05:41:49;;;;;;;21.97;7.07;;;;;6.80;94057.00;;;;7394393;19;20184;-76
2022/11/03 05:44:36;;;;;;;21.57;6.97;;;;;6.70;94060.00;;;;7390240;19;20204;-76
2022/11/03 05:47:36;;;;;;;22.70;6.77;;;;;6.70;94060.00;;;;7391987;19;20520;-76
2022/11/03 05:50:13;;;;;;;15.40;7.00;;;;;6.60;94049.00;;;;7393256;19;20137;-76
2022/11/03 05:52:50;;;;;;;17.03;7.00;;;;;6.60;94038.00;;;;7393773;19;20534;-76
2022/11/03 05:55:32;;;;;;;14.07;6.40;;;;;6.60;94027.00;;;;7393196;19;20156;-76
2022/11/03 05:58:36;;;;;;;19.90;6.50;;;;;6.40;94025.00;;;;7394051;19;20180;-76
2022/11/03 06:01:19;;;;;;;22.83;6.23;;;;;6.40;94015.00;;;;7392057;19;20149;-76
2022/11/03 06:04:00;;;;;;;14.43;6.30;;;;;6.40;94015.00;;;;7392754;19;20599;-76
2022/11/03 06:06:37;;;;;;;18.93;6.77;;;;;6.50;94012.00;;;;7389255;19;20181;-76
2022/11/03 06:09:22;;;;;;;19.73;6.10;;;;;6.50;94014.00;;;;7394086;19;20129;-76
2022/11/03 06:11:52;;;;;;;18.47;6.67;;;;;6.60;94009.00;;;;7391353;19;20655;-76
2022/11/03 06:14:29;;;;;;;14.27;6.80;;;;;6.60;94006.00;;;;7391625;19;20198;-77
2022/11/03 06:17:06;;;;;;;15.27;5.83;;;;;6.50;94007.00;;;;7389978;19;20639;-77
2022/11/03 06:19:49;;;;;;;18.10;6.50;;;;;6.60;94017.00;;;;7392819;19;20152;-76
2022/11/03 06:22:19;;;;;;;20.37;6.83;;;;;6.70;94015.00;;;;7391536;19;20137;-77
2022/11/03 06:25:09;;;;;;;15.73;7.00;;;;;6.80;94020.00;;;;7393444;19;20211;-75
2022/11/03 06:27:38;;;;;;;15.87;6.73;;;;;6.90;94004.00;;;;7391155;19;20135;-75
2022/11/03 06:30:45;;;;;;;15.63;6.47;;;;;7.00;94007.00;;;;7391253;19;20612;-76
2022/11/03 06:33:15;;;;;;;14.67;6.30;;;;;7.20;94014.00;;;;7389841;19;20180;-76
2022/11/03 06:35:59;;;;;;;19.23;6.40;;;;;7.40;93997.00;;;;7398648;19;20152;-77
2022/11/03 06:38:33;;;;;;;13.90;6.13;;;;;7.60;93997.00;;;;7397929;19;20602;-76
2022/11/03 06:41:19;;;;;;;17.23;6.40;;;;;7.80;93994.00;;;;7397453;19;20149;-76
2022/11/03 06:43:47;;;;;;;15.47;6.17;;;;;7.90;93993.00;;;;7399676;19;20133;-76
2022/11/03 06:46:24;;;;;;;16.30;6.10;;;;;7.90;93990.00;;;;7397570;19;20175;-75
2022/11/03 06:49:03;;;;;;;15.10;6.10;;;;;8.20;93983.00;;;;7396474;19;20733;-76
2022/11/03 06:51:37;;;;;;;14.53;6.00;;;;;8.30;93979.00;;;;7398126;19;20148;-76
2022/11/03 06:54:08;;;;;;;17.47;5.20;;;;;8.70;93972.00;;;;7400494;19;20125;-76
2022/11/03 06:56:37;;;;;;;13.77;5.10;;;;;8.90;93967.00;;;;7397750;19;20140;-75
2022/11/03 06:59:14;;;;;;;13.40;4.97;;;;;9.00;93972.00;;;;7399100;19;20125;-76
2022/11/03 07:01:44;;;;;;;13.27;4.37;;;;;9.00;93975.00;;;;7397187;19;20129;-76
2022/11/03 07:04:27;;;;;;;8.77;4.00;;;;;9.00;93968.00;;;;7396074;19;20128;-77
2022/11/03 07:07:01;;;;;;;10.67;4.03;;;;;8.90;93970.00;;;;7396943;19;20475;-76
2022/11/03 07:09:35;;;;;;;9.60;4.10;;;;;9.10;93969.00;;;;7399767;19;20128;-75
2022/11/03 07:12:08;;;;;;;8.93;3.40;;;;;9.10;93960.00;;;;7396805;19;20493;-76
2022/11/03 07:14:42;;;;;;;9.23;4.10;;;;;9.20;93960.00;;;;7396085;19;20140;-76
2022/11/03 07:17:20;;;;;;;10.83;3.67;;;;;9.10;93962.00;;;;7398100;19;20160;-76
2022/11/03 07:19:54;;;;;;;10.27;3.50;;;;;9.20;93958.00;;;;7401647;19;20152;-75
2022/11/03 07:22:24;;;;;;;7.17;3.37;;;;;9.10;93959.00;;;;7400611;19;20460;-76
2022/11/03 07:24:58;;;;;;;10.03;4.30;;;;;9.30;93945.00;;;;7400093;19;20193;-74
2022/11/03 07:27:38;;;;;;;8.87;3.57;;;;;9.40;93949.00;;;;7400989;19;20212;-76
2022/11/03 07:30:22;;;;;;;7.93;3.63;;;;;9.30;93942.00;;;;7399056;19;20165;-75
2022/11/03 07:33:13;;;;;;;7.27;3.73;;;;;9.40;93934.00;;;;7400206;19;20971;-75
2022/11/03 07:35:54;;;;;;;7.07;3.57;;;;;9.30;93937.00;;;;7398396;19;20176;-75
2022/11/03 07:38:47;;;;;;;12.27;3.73;;;;;9.30;93933.00;;;;7397580;19;20140;-76
2022/11/03 07:41:23;;;;;;;7.87;3.70;;;;;9.30;93932.00;;;;7400532;19;20641;-77
2022/11/03 07:44:01;;;;;;;11.10;3.87;;;;;9.40;93933.00;;;;7397140;19;20144;-78
2022/11/03 07:46:29;;;;;;;11.83;4.17;;;;;9.40;93931.00;;;;7392167;19;20137;-76
2022/11/03 07:49:01;;;;;;;8.00;4.00;;;;;9.40;93913.00;;;;7390632;19;20439;-74
2022/11/03 07:51:40;;;;;;;8.47;4.60;;;;;9.40;93919.00;;;;7393774;19;20139;-75
2022/11/03 07:54:07;;;;;;;11.13;4.20;;;;;9.50;93914.00;;;;7391895;19;20494;-76
2022/11/03 07:56:47;;;;;;;11.07;4.53;;;;;9.50;93905.00;;;;7387276;19;20482;-75
2022/11/03 07:59:35;;;;;;;11.30;5.60;;;;;9.50;93894.00;;;;7390553;19;20964;-77
2022/11/03 08:02:28;;;;;;;9.50;4.70;;;;;9.50;93889.00;;;;7391379;19;20521;-76
2022/11/03 08:05:03;;;;;;;7.43;4.53;;;;;9.60;93889.00;;;;7390740;19;20977;-76
2022/11/03 08:07:31;;;;;;;9.43;5.03;;;;;9.70;93889.00;;;;7389732;19;20160;-76
2022/11/03 08:10:01;;;;;;;10.60;5.10;;;;;9.90;93890.00;;;;7391133;19;20704;-76
2022/11/03 08:12:36;;;;;;;9.43;5.10;;;;;9.90;93891.00;;;;7383096;19;20144;-76
2022/11/03 08:15:04;;;;;;;13.00;5.38;;;;;10.00;93890.00;;;;7387728;19;20232;-75
2022/11/03 08:17:32;;;;;;;11.17;4.80;;;;;10.10;93885.00;;;;7387068;19;20144;-77
2022/11/03 08:20:06;;;;;;;12.27;5.70;;;;;10.20;93881.00;;;;7388127;19;20140;-77
2022/11/03 08:22:33;;;;;;;11.90;5.70;;;;;10.30;93877.00;;;;7388789;19;20160;-76
2022/11/03 08:25:01;;;;;;;7.95;4.97;;;;;10.30;93874.00;;;;7387655;19;20599;-75
2022/11/03 08:27:35;;;;;;;8.50;5.20;;;;;10.40;93872.00;;;;7389635;19;20579;-76
2022/11/03 08:30:03;;;;;;;9.82;5.30;;;;;10.50;93860.00;;;;7389092;19;20192;-77
2022/11/03 08:32:31;;;;;;;9.75;4.72;;;;;10.80;93861.00;;;;7384181;19;20168;-76
2022/11/03 08:35:11;;;;;;;9.88;5.03;;;;;10.90;93847.00;;;;7385815;19;20654;-76
2022/11/03 08:37:45;;;;;;;6.40;4.47;;;;;11.20;93844.00;;;;7387731;19;20188;-77
2022/11/03 08:40:19;;;;;;;8.10;3.95;;;;;11.40;93846.00;;;;7388149;19;20246;-77
2022/11/03 08:42:48;;;;;;;9.18;4.10;;;;;11.60;93848.00;;;;7387593;19;20129;-76
2022/11/03 08:45:16;;;;;;;7.88;4.13;;;;;11.70;93839.00;;;;7384761;19;20149;-76
2022/11/03 08:47:51;;;;;;;7.03;3.60;;;;;11.90;93843.00;;;;7387257;19;20180;-76
2022/11/03 08:50:18;;;;;;;6.32;3.40;;;;;12.10;93846.00;;;;7385457;19;20161;-76
2022/11/03 08:52:46;;;;;;;7.20;3.20;;;;;12.30;93835.00;;;;7385961;19;20148;-77
2022/11/03 08:55:20;;;;;;;5.95;3.20;;;;;12.60;93833.00;;;;7388337;19;20936;-76
2022/11/03 08:57:47;;;;;;;7.20;2.92;;;;;12.80;93826.00;;;;7388064;19;20137;-77
2022/11/03 09:00:18;;;;;;;5.93;3.17;;;;;13.00;93831.00;;;;7383716;19;20505;-77
2022/11/03 09:02:53;;;;;;;6.13;2.97;;;;;12.90;93823.00;;;;7386034;19;20157;-77
2022/11/03 09:05:21;;;;;;;6.07;2.78;;;;;13.00;93824.00;;;;7387513;19;20147;-77
2022/11/03 09:07:48;;;;;;;4.47;2.40;;;;;12.80;93817.00;;;;7388095;19;20529;-76
2022/11/03 09:10:42;;;;;;;5.28;2.10;;;;;13.30;93813.00;;;;7385956;19;20174;-76
2022/11/03 09:13:10;;;;;;;5.82;2.20;;;;;13.70;93821.00;;;;7388188;19;20148;-76
2022/11/03 09:15:44;;;;;;;7.18;2.30;;;;;13.90;93822.00;;;;7387369;19;20136;-77
2022/11/03 09:18:12;;;;;;;3.65;2.03;;;;;13.90;93821.00;;;;7385976;19;20174;-76
2022/11/03 09:20:39;;;;;;;5.22;2.58;;;;;14.10;93819.00;;;;7383921;19;20216;-76
2022/11/03 09:23:13;;;;;;;5.15;2.50;;;;;13.60;93812.00;;;;7384789;19;20260;-76
2022/11/03 09:25:41;;;;;;;6.55;2.92;;;;;13.30;93811.00;;;;7387281;19;20133;-76
2022/11/03 09:28:08;;;;;;;5.78;2.30;;;;;13.60;93814.00;;;;7388940;19;20210;-74
2022/11/03 09:30:42;;;;;;;6.65;2.63;;;;;13.50;93809.00;;;;7387272;19;20129;-76
2022/11/03 09:33:10;;;;;;;4.78;2.65;;;;;13.50;93807.00;;;;7384951;19;20596;-75
2022/11/03 09:35:38;;;;;;;4.47;2.65;;;;;13.70;93812.00;;;;7383918;19;20153;-75
2022/11/03 09:38:12;;;;;;;5.57;2.72;;;;;13.80;93805.00;;;;7386500;19;20135;-75
2022/11/03 09:40:40;;;;;;;6.70;2.83;;;;;13.20;93793.00;;;;7383270;19;20133;-74
2022/11/03 09:43:09;;;;;;;7.80;2.97;;;;;13.10;93788.00;;;;7384964;19;20697;-75
2022/11/03 09:45:43;;;;;;;5.05;2.92;;;;;13.00;93799.00;;;;7384646;19;20155;-75
2022/11/03 09:48:12;;;;;;;4.35;2.88;;;;;12.70;93806.00;;;;7384519;19;20174;-75
2022/11/03 09:50:40;;;;;;;6.28;3.00;;;;;12.80;93800.00;;;;7385660;19;20160;-76
2022/11/03 09:53:14;;;;;;;4.93;2.88;;;;;12.80;93800.00;;;;7387018;19;20140;-74
2022/11/03 09:55:42;;;;;;;5.05;2.92;;;;;12.70;93797.00;;;;7389776;19;20500;-74
2022/11/03 09:58:15;;;;;;;7.03;2.80;;;;;13.00;93797.00;;;;7389353;19;20133;-74
2022/11/03 10:00:50;;;;;;;4.13;2.78;;;;;13.20;93784.00;;;;7384904;19;20151;-76
2022/11/03 10:03:19;;;;;;;6.90;3.15;;;;;13.40;93790.00;;;;7388956;19;20125;-74
2022/11/03 10:05:47;;;;;;;6.05;3.00;;;;;13.30;93776.00;;;;7386712;19;20153;-76
2022/11/03 10:08:30;;;;;;;5.45;2.40;;;;;13.50;93784.00;;;;7391443;19;20177;-75
2022/11/03 10:10:59;;;;;;;5.10;2.65;;;;;13.80;93774.00;;;;7394652;19;20148;-75
2022/11/03 10:13:40;;;;;;;5.57;2.60;;;;;13.80;93781.00;;;;7393286;19;20500;-75
2022/11/03 10:16:10;;;;;;;3.78;2.20;;;;;13.60;93776.00;;;;7390577;19;20136;-75
2022/11/03 10:18:44;;;;;;;3.88;2.50;;;;;13.80;93771.00;;;;7388974;19;20133;-74
2022/11/03 10:21:15;;;;;;;6.95;2.28;;;;;13.80;93763.00;;;;7392325;19;20623;-75
2022/11/03 10:23:43;;;;;;;5.28;1.75;;;;;14.00;93754.00;;;;7392612;19;20153;-75
2022/11/03 10:26:20;;;;;;;3.28;1.90;;;;;14.10;93754.00;;;;7393225;19;20167;-75
2022/11/03 10:29:01;;;;;;;4.18;2.22;;;;;14.30;93750.00;;;;7391344;19;20161;-75
2022/11/03 10:31:42;;;;;;;5.45;2.63;;;;;14.40;93734.00;;;;7392624;19;20149;-74
2022/11/03 10:34:33;;;;;;;2.83;2.17;;;;;14.80;93731.00;;;;7392068;19;20166;-75
2022/11/03 10:37:28;;;;;;;5.07;2.65;;;;;15.10;93731.00;;;;7392125;19;20128;-74
2022/11/03 10:39:59;;;;;;;2.63;2.20;;;;;14.90;93737.00;;;;7392591;19;20180;-75
2022/11/03 10:42:58;;;;;;;3.92;2.70;;;;;14.70;93741.00;;;;7389452;19;20151;-75
2022/11/03 10:45:26;;;;;;;5.47;2.20;;;;;14.70;93733.00;;;;7388934;19;20621;-76
2022/11/03 10:48:08;;;;;;;4.07;2.40;;;;;14.40;93724.00;;;;7391085;19;20522;-76
2022/11/03 10:50:40;;;;;;;6.65;2.45;;;;;13.90;93732.00;;;;7391627;19;20586;-75
2022/11/03 10:53:19;;;;;;;5.35;2.42;;;;;13.90;93726.00;;;;7391418;19;20631;-74
2022/11/03 10:55:46;;;;;;;4.55;2.53;;;;;13.80;93711.00;;;;7392922;19;20153;-75
2022/11/03 10:58:14;;;;;;;3.75;2.00;;;;;13.50;93701.00;;;;7388700;19;20563;-75
2022/11/03 11:00:48;;;;;;;4.95;2.00;;;;;13.60;93694.00;;;;7388857;19;20241;-75
2022/11/03 11:03:16;;;;;;;4.35;2.10;;;;;13.70;93692.00;;;;7390640;19;20129;-75
2022/11/03 11:05:48;;;;;;;3.58;2.38;;;;;13.60;93689.00;;;;7391230;19;20161;-74
2022/11/03 11:08:23;;;;;;;4.80;2.38;;;;;13.60;93683.00;;;;7390033;19;20137;-75
2022/11/03 11:10:52;;;;;;;5.57;2.63;;;;;13.60;93679.00;;;;7390173;19;20216;-75
2022/11/03 11:13:26;;;;;;;4.35;2.25;;;;;13.90;93679.00;;;;7388343;19;20193;-74
2022/11/03 11:16:01;;;;;;;4.20;2.33;;;;;13.60;93678.00;;;;7394382;19;20133;-73
2022/11/03 11:18:29;;;;;;;2.92;2.28;;;;;13.60;93683.00;;;;7386523;19;20160;-75
2022/11/03 11:21:00;;;;;;;4.45;2.70;;;;;13.50;93672.00;;;;7393589;19;20148;-75
2022/11/03 11:23:34;;;;;;;3.22;2.45;;;;;13.30;93672.00;;;;7396187;19;20143;-75
2022/11/03 11:26:23;;;;;;;4.82;2.80;;;;;13.40;93681.00;;;;7397953;19;20571;-75
2022/11/03 11:29:14;;;;;;;5.05;2.55;;;;;13.50;93664.00;;;;7395664;19;20135;-75
2022/11/03 11:31:45;;;;;;;4.97;2.65;;;;;13.30;93671.00;;;;7395979;19;20165;-75
2022/11/03 11:34:19;;;;;;;6.97;2.88;;;;;13.30;93659.00;;;;7394966;19;20615;-75
2022/11/03 11:36:54;;;;;;;5.30;2.40;;;;;13.30;93646.00;;;;7392544;19;20196;-76
2022/11/03 11:39:29;;;;;;;4.20;2.70;;;;;13.40;93648.00;;;;7394201;19;20190;-75
2022/11/03 11:42:20;;;;;;;5.50;2.75;;;;;13.50;93638.00;;;;7394836;19;20144;-74
2022/11/03 11:45:01;;;;;;;6.45;2.28;;;;;13.40;93640.00;;;;7393236;19;20137;-76
2022/11/03 11:47:49;;;;;;;4.22;2.17;;;;;13.60;93627.00;;;;7389943;19;20224;-74
2022/11/03 11:50:28;;;;;;;4.55;2.28;;;;;13.20;93632.00;;;;7387495;19;20156;-74
2022/11/03 11:53:11;;;;;;;2.90;1.90;;;;;13.30;93628.00;;;;7390786;19;20175;-76
2022/11/03 11:55:50;;;;;;;5.05;1.90;;;;;13.10;93636.00;;;;7390563;19;20160;-74
2022/11/03 11:58:23;;;;;;;3.03;2.30;;;;;13.20;93636.00;;;;7387880;19;20171;-74
2022/11/03 12:01:20;;;;;;;3.28;1.85;;;;;13.20;93630.00;;;;7387393;19;20152;-74
2022/11/03 12:03:50;;;;;;;6.07;2.05;;;;;13.20;93627.00;;;;7389139;19;20149;-76
2022/11/03 12:06:38;;;;;;;3.38;2.00;;;;;12.80;93615.00;;;;7388311;19;20136;-75
2022/11/03 12:09:07;;;;;;;4.63;2.53;;;;;12.90;93611.00;;;;7386758;19;20570;-75
2022/11/03 12:11:43;;;;;;;3.40;2.55;;;;;12.90;93611.00;;;;7388536;19;20646;-74
2022/11/03 12:14:32;;;;;;;3.22;2.30;;;;;12.70;93604.00;;;;7391035;19;20140;-74
2022/11/03 12:17:18;;;;;;;3.60;1.75;;;;;12.60;93592.00;;;;7386261;19;20177;-75
2022/11/03 12:19:50;;;;;;;2.15;1.70;;;;;12.30;93592.00;;;;7387134;19;20604;-74
2022/11/03 12:22:27;;;;;;;3.90;1.92;;;;;12.60;93580.00;;;;7384789;19;20156;-75
2022/11/03 12:25:03;;;;;;;3.30;2.28;;;;;12.50;93565.00;;;;7387427;19;20132;-76
2022/11/03 12:27:37;;;;;;;4.10;2.15;;;;;12.50;93563.00;;;;7387718;19;20148;-74
2022/11/03 12:30:13;;;;;;;3.13;1.92;;;;;12.40;93570.00;;;;7387496;19;20125;-74
2022/11/03 12:32:47;;;;;;;5.35;2.45;;;;;12.20;93561.00;;;;7387230;19;20519;-74
2022/11/03 12:35:22;;;;;;;5.30;2.67;;;;;12.30;93555.00;;;;7385277;19;20917;-75
2022/11/03 12:38:03;;;;;;;4.38;2.78;;;;;12.40;93555.00;;;;7387545;19;20155;-75
2022/11/03 12:40:31;;;;;;;3.03;2.58;;;;;12.30;93551.00;;;;7386390;19;20195;-75
2022/11/03 12:43:05;;;;;;;5.10;2.65;;;;;12.40;93550.00;;;;7390096;19;20151;-75
2022/11/03 12:45:33;;;;;;;3.92;2.78;;;;;12.20;93552.00;;;;7385757;19;20193;-75
2022/11/03 12:48:01;;;;;;;4.10;2.80;;;;;12.50;93541.00;;;;7385969;19;20207;-74
2022/11/03 12:50:36;;;;;;;7.35;3.00;;;;;12.30;93537.00;;;;7387795;19;20650;-74
2022/11/03 12:53:11;;;;;;;4.70;3.00;;;;;12.30;93537.00;;;;7387302;19;20670;-75
2022/11/03 12:55:46;;;;;;;3.88;3.10;;;;;12.10;93541.00;;;;7388685;19;20137;-75
2022/11/03 12:58:14;;;;;;;5.68;3.20;;;;;12.30;93528.00;;;;7385486;19;20133;-75
2022/11/03 13:00:41;;;;;;;4.57;2.97;;;;;12.20;93523.00;;;;7385493;19;20150;-75
2022/11/03 13:03:21;;;;;;;6.20;2.90;;;;;12.00;93519.00;;;;7390162;19;20595;-75
2022/11/03 13:05:49;;;;;;;5.00;3.05;;;;;11.90;93514.00;;;;7385288;19;20152;-75
2022/11/03 13:08:23;;;;;;;4.88;2.78;;;;;12.10;93503.00;;;;7386340;19;20614;-73
2022/11/03 13:10:51;;;;;;;4.78;3.13;;;;;12.00;93498.00;;;;7388986;19;20633;-75
2022/11/03 13:13:20;;;;;;;10.15;3.65;;;;;12.10;93495.00;;;;7386117;19;20180;-74
2022/11/03 13:15:54;;;;;;;3.67;2.75;;;;;12.10;93488.00;;;;7386248;19;20168;-73